Time;durP1;ratioP1;P1;durP2;ratioP2;P2;SDS_P1;SDS_P2;PMS_P1;PMS_P2;Temp;Humidity;BMP_temperature;BMP_pressure;BME280_temperature;BME280_humidity;BME280_pressure;Samples;Min_cycle;Max_cycle;Signal;HPM_P1;HPM_P2
2022/03/26 00:00:44;;;;;;;72.53;30.92;;;;;;;6.42;70.02;102835.31;4970783;28;20034;-79
2022/03/26 00:03:13;;;;;;;72.93;31.33;;;;;;;6.40;69.75;102831.97;4985395;28;20030;-77
2022/03/26 00:05:39;;;;;;;70.72;32.15;;;;;;;6.36;69.75;102832.19;4983303;28;20030;-81
2022/03/26 00:08:05;;;;;;;75.40;32.65;;;;;;;6.31;70.27;102841.91;4973951;28;20085;-78
2022/03/26 00:10:31;;;;;;;75.15;30.52;;;;;;;6.23;70.52;102838.00;4969591;28;20529;-83
2022/03/26 00:12:57;;;;;;;73.20;30.20;;;;;;;6.21;70.55;102832.06;4986007;28;20100;-77
2022/03/26 00:15:23;;;;;;;66.32;29.67;;;;;;;6.17;70.83;102830.56;4967431;28;20044;-77
2022/03/26 00:17:49;;;;;;;72.45;31.10;;;;;;;6.12;71.00;102831.69;4987628;28;20030;-77
2022/03/26 00:20:14;;;;;;;65.47;29.48;;;;;;;6.06;71.23;102837.97;4969039;28;20069;-78
2022/03/26 00:22:40;;;;;;;59.97;28.50;;;;;;;6.01;71.22;102838.22;4983156;28;20499;-77
2022/03/26 00:25:06;;;;;;;57.90;26.88;;;;;;;5.96;71.49;102831.63;4970243;28;20507;-77
2022/03/26 00:27:32;;;;;;;60.22;27.40;;;;;;;5.94;71.67;102839.41;4986508;28;20026;-80
2022/03/26 00:29:57;;;;;;;61.33;28.75;;;;;;;5.90;71.98;102840.47;4982910;28;20117;-79
2022/03/26 00:32:23;;;;;;;69.18;29.33;;;;;;;5.88;71.82;102844.00;4969197;28;20117;-77
2022/03/26 00:34:49;;;;;;;68.97;29.83;;;;;;;5.83;71.96;102833.94;4984915;28;20148;-78
2022/03/26 00:37:15;;;;;;;66.90;28.23;;;;;;;5.77;72.15;102832.50;4982928;28;20093;-79
2022/03/26 00:39:42;;;;;;;64.32;28.92;;;;;;;5.70;72.42;102828.56;4984996;28;20034;-77
2022/03/26 00:42:08;;;;;;;62.03;27.02;;;;;;;5.64;72.45;102827.13;4984832;28;20042;-77
2022/03/26 00:44:35;;;;;;;57.45;26.92;;;;;;;5.60;72.83;102830.75;4983112;28;20034;-79
2022/03/26 00:47:01;;;;;;;65.35;27.98;;;;;;;5.55;73.43;102826.72;4969226;28;20061;-79
2022/03/26 00:49:26;;;;;;;66.50;28.50;;;;;;;5.47;74.12;102819.38;4969281;28;20022;-77
2022/03/26 00:51:52;;;;;;;61.35;27.73;;;;;;;5.44;74.09;102827.22;4969058;28;20566;-77
2022/03/26 00:54:17;;;;;;;69.47;29.58;;;;;;;5.44;74.05;102817.78;4968271;28;20034;-79
2022/03/26 00:56:43;;;;;;;63.13;29.48;;;;;;;5.45;74.14;102826.34;4966931;28;20112;-79
2022/03/26 00:59:09;;;;;;;76.25;30.63;;;;;;;5.43;73.56;102817.88;4984572;28;20040;-76
2022/03/26 01:01:35;;;;;;;73.28;32.72;;;;;;;5.44;73.61;102815.22;4986006;28;20030;-81
2022/03/26 01:04:01;;;;;;;69.70;31.50;;;;;;;5.44;73.76;102822.09;4966298;28;20041;-77
2022/03/26 01:06:27;;;;;;;70.70;30.92;;;;;;;5.42;73.55;102811.88;4969413;28;20057;-77
2022/03/26 01:08:54;;;;;;;67.22;30.00;;;;;;;5.38;73.81;102812.91;4966682;28;20507;-79
2022/03/26 01:11:20;;;;;;;70.55;30.85;;;;;;;5.38;73.70;102819.81;4969142;28;20050;-79
2022/03/26 01:13:46;;;;;;;69.70;29.65;;;;;;;5.35;73.38;102815.66;4982204;28;20153;-79
2022/03/26 01:16:15;;;;;;;73.10;30.45;;;;;;;5.33;73.71;102814.03;4986435;28;20033;-77
2022/03/26 01:18:42;;;;;;;72.80;30.45;;;;;;;5.32;73.55;102812.41;4982102;28;20501;-77
2022/03/26 01:21:07;;;;;;;68.97;29.20;;;;;;;5.32;73.84;102809.81;4967210;28;20185;-80
2022/03/26 01:23:34;;;;;;;62.90;28.45;;;;;;;5.30;73.96;102811.63;4983709;28;20046;-78
2022/03/26 01:26:00;;;;;;;68.35;30.55;;;;;;;5.27;74.16;102802.31;4968035;28;20096;-78
2022/03/26 01:28:26;;;;;;;67.07;29.88;;;;;;;5.25;74.12;102804.13;4990032;28;20041;-77
2022/03/26 01:30:52;;;;;;;68.60;30.35;;;;;;;5.20;74.36;102801.78;4989385;28;20078;-77
2022/03/26 01:33:17;;;;;;;75.72;30.88;;;;;;;5.17;74.58;102804.47;4986022;28;20039;-77
2022/03/26 01:35:43;;;;;;;68.85;28.90;;;;;;;5.10;74.83;102809.97;4970697;28;20070;-77
2022/03/26 01:38:09;;;;;;;68.85;31.20;;;;;;;5.04;74.75;102806.78;4989898;28;20038;-77
2022/03/26 01:40:36;;;;;;;72.40;29.15;;;;;;;5.01;74.80;102799.22;4987304;28;20051;-80
2022/03/26 01:43:02;;;;;;;67.90;30.42;;;;;;;4.98;75.06;102799.38;4989121;28;20045;-78
2022/03/26 01:45:27;;;;;;;68.07;30.52;;;;;;;4.91;75.14;102800.53;4989589;28;20047;-78
2022/03/26 01:47:54;;;;;;;73.25;32.00;;;;;;;4.86;75.23;102798.19;4955075;28;20041;-79
2022/03/26 01:50:20;;;;;;;70.15;28.23;;;;;;;4.80;75.64;102793.34;4972476;28;20141;-79
2022/03/26 01:52:45;;;;;;;71.10;30.50;;;;;;;4.78;75.66;102800.25;4988759;28;20483;-81
2022/03/26 01:55:11;;;;;;;72.78;29.70;;;;;;;4.78;75.69;102809.72;4971273;28;20421;-79
2022/03/26 01:57:38;;;;;;;66.05;29.15;;;;;;;4.77;75.70;102813.22;4972021;28;20120;-78
2022/03/26 02:00:06;;;;;;;60.08;27.58;;;;;;;4.72;75.74;102805.69;4987096;28;20292;-80
2022/03/26 02:02:43;;;;;;;64.18;27.25;;;;;;;4.67;75.65;102812.75;4986944;28;20117;-79
2022/03/26 02:05:13;;;;;;;63.97;29.85;;;;;;;4.63;75.95;102812.09;4989460;28;20034;-78
2022/03/26 02:07:40;;;;;;;72.85;30.33;;;;;;;4.60;75.91;102812.22;4952613;28;20034;-76
2022/03/26 02:10:14;;;;;;;65.32;30.30;;;;;;;4.59;76.21;102820.81;4957797;28;20038;-81
2022/03/26 02:12:40;;;;;;;72.00;30.98;;;;;;;4.59;75.87;102822.56;4984850;28;20049;-76
2022/03/26 02:15:07;;;;;;;72.18;30.42;;;;;;;4.58;76.55;102820.91;4989129;28;20038;-77
2022/03/26 02:17:33;;;;;;;67.32;31.33;;;;;;;4.57;76.60;102822.63;4985097;28;20525;-83
2022/03/26 02:20:00;;;;;;;69.95;29.08;;;;;;;4.54;76.61;102820.19;4971421;28;20479;-79
2022/03/26 02:22:28;;;;;;;67.60;29.38;;;;;;;4.51;76.54;102816.94;4970809;28;20045;-76
2022/03/26 02:24:54;;;;;;;73.55;31.45;;;;;;;4.45;76.97;102821.44;4969048;28;20030;-78
2022/03/26 02:27:21;;;;;;;71.97;30.65;;;;;;;4.43;77.36;102824.97;4972378;28;20041;-78
2022/03/26 02:29:47;;;;;;;77.25;31.60;;;;;;;4.42;76.94;102821.53;4970410;28;20038;-79
2022/03/26 02:32:13;;;;;;;74.30;30.77;;;;;;;4.42;77.14;102826.69;4956583;28;20404;-78
2022/03/26 02:34:38;;;;;;;75.82;30.35;;;;;;;4.41;77.47;102829.34;4970524;28;20041;-77
2022/03/26 02:37:04;;;;;;;76.82;30.75;;;;;;;4.37;77.30;102820.06;4990567;28;20061;-78
2022/03/26 02:39:30;;;;;;;69.57;28.92;;;;;;;4.34;77.56;102821.06;4970112;28;20026;-77
2022/03/26 02:41:55;;;;;;;67.65;29.63;;;;;;;4.33;77.63;102818.53;4954546;28;20517;-80
2022/03/26 02:44:21;;;;;;;74.13;30.75;;;;;;;4.30;78.13;102824.66;4958348;28;20038;-77
2022/03/26 02:46:46;;;;;;;74.20;30.05;;;;;;;4.26;77.88;102815.41;4971463;28;20038;-76
2022/03/26 02:49:13;;;;;;;67.18;28.58;;;;;;;4.24;78.14;102822.38;4974366;28;20045;-79
2022/03/26 02:51:39;;;;;;;67.22;28.27;;;;;;;4.21;78.04;102822.47;4973224;28;20046;-76
2022/03/26 02:54:05;;;;;;;71.03;30.05;;;;;;;4.16;77.98;102822.66;4987830;28;20034;-80
2022/03/26 02:56:31;;;;;;;75.03;32.45;;;;;;;4.13;78.31;102816.84;4969609;28;20166;-78
2022/03/26 02:58:56;;;;;;;68.90;30.58;;;;;;;4.10;77.99;102810.91;4957626;28;20042;-76
2022/03/26 03:01:23;;;;;;;74.70;31.58;;;;;;;4.09;77.91;102819.53;4971489;28;20050;-80
2022/03/26 03:03:50;;;;;;;69.75;30.83;;;;;;;4.08;77.97;102811.88;4973127;28;20034;-80
2022/03/26 03:06:16;;;;;;;82.00;30.40;;;;;;;4.06;78.46;102813.69;4974136;28;20026;-77
2022/03/26 03:08:41;;;;;;;72.10;29.63;;;;;;;4.02;78.68;102810.41;4988906;28;20581;-77
2022/03/26 03:11:08;;;;;;;64.82;28.35;;;;;;;4.02;78.30;102810.41;4969335;28;20546;-78
2022/03/26 03:13:34;;;;;;;66.15;30.35;;;;;;;3.97;78.25;102811.50;4969440;28;20052;-77
2022/03/26 03:15:59;;;;;;;75.20;28.77;;;;;;;3.94;78.67;102812.47;4988244;28;20039;-78
2022/03/26 03:18:25;;;;;;;75.75;30.23;;;;;;;3.93;78.83;102815.91;4987472;28;20041;-78
2022/03/26 03:20:50;;;;;;;76.95;29.75;;;;;;;3.87;78.95;102811.06;4969516;28;20061;-78
2022/03/26 03:23:16;;;;;;;71.85;29.45;;;;;;;3.86;78.92;102819.63;4969568;28;20027;-77
2022/03/26 03:25:41;;;;;;;69.60;30.08;;;;;;;3.84;79.02;102821.44;4971158;28;20485;-78
2022/03/26 03:28:07;;;;;;;72.47;30.92;;;;;;;3.83;78.67;102819.78;4985190;28;20042;-77
2022/03/26 03:30:33;;;;;;;76.72;31.65;;;;;;;3.83;78.75;102824.91;4971248;28;20046;-79
2022/03/26 03:32:58;;;;;;;74.18;31.35;;;;;;;3.79;78.81;102820.81;4985426;28;20489;-79
2022/03/26 03:35:24;;;;;;;75.72;30.98;;;;;;;3.77;79.23;102820.00;4970075;28;20030;-79
2022/03/26 03:37:50;;;;;;;74.53;32.03;;;;;;;3.69;79.61;102821.19;4984862;28;20336;-79
2022/03/26 03:40:17;;;;;;;73.47;29.63;;;;;;;3.66;79.58;102821.28;4975879;28;20478;-77
2022/03/26 03:42:43;;;;;;;75.93;30.58;;;;;;;3.65;79.43;102826.47;4987855;28;20042;-76
2022/03/26 03:45:09;;;;;;;71.97;31.92;;;;;;;3.63;79.75;102829.09;4990196;28;20088;-77
2022/03/26 03:47:36;;;;;;;68.05;30.17;;;;;;;3.62;79.36;102824.88;4988258;28;20031;-78
2022/03/26 03:50:01;;;;;;;74.65;30.60;;;;;;;3.60;79.49;102828.38;4969014;28;20073;-78
2022/03/26 03:52:26;;;;;;;75.22;30.52;;;;;;;3.59;79.28;102819.84;4969964;28;20042;-77
2022/03/26 03:54:52;;;;;;;78.05;31.60;;;;;;;3.58;79.44;102825.91;4987107;28;21272;-78
2022/03/26 03:57:17;;;;;;;81.47;32.58;;;;;;;3.54;79.31;102824.31;4970272;28;20077;-78
2022/03/26 03:59:43;;;;;;;73.20;31.40;;;;;;;3.53;79.56;102822.69;4984485;28;20415;-77
2022/03/26 04:02:09;;;;;;;73.60;31.50;;;;;;;3.51;79.37;102824.47;4971359;28;20026;-78
2022/03/26 04:04:37;;;;;;;73.90;31.98;;;;;;;3.47;79.32;102823.75;4969418;28;20022;-81
2022/03/26 04:07:03;;;;;;;75.20;31.10;;;;;;;3.47;79.72;102828.06;4984649;28;20505;-78
2022/03/26 04:09:29;;;;;;;72.47;31.08;;;;;;;3.45;79.59;102824.72;4988510;28;20034;-78
2022/03/26 04:11:54;;;;;;;75.22;31.23;;;;;;;3.42;79.76;102825.66;4985087;28;20031;-76
2022/03/26 04:14:20;;;;;;;76.18;30.40;;;;;;;3.42;79.82;102822.25;4970694;28;20057;-77
2022/03/26 04:16:45;;;;;;;73.72;31.45;;;;;;;3.41;80.10;102828.28;4984521;28;20042;-82
2022/03/26 04:19:12;;;;;;;75.15;30.70;;;;;;;3.41;80.46;102829.13;4969773;28;20063;-81
2022/03/26 04:21:38;;;;;;;76.65;32.10;;;;;;;3.38;80.71;102824.09;4969114;28;20034;-78
2022/03/26 04:24:04;;;;;;;85.00;31.05;;;;;;;3.36;80.58;102820.78;4971732;28;20034;-77
2022/03/26 04:26:29;;;;;;;76.95;31.90;;;;;;;3.35;80.99;102823.38;4984896;28;20529;-79
2022/03/26 04:28:55;;;;;;;72.88;30.23;;;;;;;3.31;80.76;102826.09;4969121;28;20035;-77
2022/03/26 04:31:20;;;;;;;74.88;30.75;;;;;;;3.29;80.91;102827.03;4970678;28;20774;-78
2022/03/26 04:33:46;;;;;;;73.15;30.20;;;;;;;3.27;80.89;102831.38;4954324;28;20030;-77
2022/03/26 04:36:11;;;;;;;70.65;31.33;;;;;;;3.23;81.04;102827.28;4970663;28;20061;-82
2022/03/26 04:38:37;;;;;;;85.25;33.45;;;;;;;3.19;81.40;102821.41;4968521;28;20066;-77
2022/03/26 04:41:02;;;;;;;80.00;30.98;;;;;;;3.15;81.51;102819.88;4969921;28;20053;-76
2022/03/26 04:43:28;;;;;;;74.63;31.05;;;;;;;3.11;81.48;102824.28;4970941;28;20041;-79
2022/03/26 04:45:53;;;;;;;81.32;32.35;;;;;;;3.12;81.70;102830.22;4967229;28;20037;-80
2022/03/26 04:48:19;;;;;;;73.50;32.00;;;;;;;3.12;81.00;102825.09;4969574;28;20038;-77
2022/03/26 04:50:44;;;;;;;74.65;31.25;;;;;;;3.09;81.48;102831.19;4968338;28;20560;-77
2022/03/26 04:53:10;;;;;;;72.60;31.02;;;;;;;3.07;81.18;102834.69;4966331;28;20030;-79
2022/03/26 04:55:35;;;;;;;79.80;31.42;;;;;;;3.05;81.47;102828.78;4984690;28;20056;-77
2022/03/26 04:58:01;;;;;;;76.53;32.13;;;;;;;3.04;81.72;102834.81;4968266;28;20030;-77
2022/03/26 05:00:26;;;;;;;75.90;29.80;;;;;;;3.03;81.58;102835.69;4969737;28;20132;-79
2022/03/26 05:02:52;;;;;;;78.63;31.58;;;;;;;3.02;81.88;102831.47;4982836;28;20042;-78
2022/03/26 05:05:17;;;;;;;76.25;31.20;;;;;;;2.98;81.82;102832.50;4969928;28;20046;-78
2022/03/26 05:07:46;;;;;;;71.25;29.25;;;;;;;2.96;82.15;102839.38;4987347;28;20030;-78
2022/03/26 05:10:15;;;;;;;71.85;31.08;;;;;;;2.89;81.98;102834.47;4969220;28;20198;-76
2022/03/26 05:12:42;;;;;;;68.57;29.60;;;;;;;2.84;82.44;102838.09;4968206;28;20027;-77
2022/03/26 05:15:08;;;;;;;77.97;30.33;;;;;;;2.81;82.61;102831.38;4967787;28;20100;-80
2022/03/26 05:17:34;;;;;;;78.82;32.10;;;;;;;2.78;82.53;102836.59;4979845;28;20022;-79
2022/03/26 05:20:00;;;;;;;77.07;30.75;;;;;;;2.77;82.71;102837.50;4982561;28;20066;-80
2022/03/26 05:22:26;;;;;;;77.40;32.38;;;;;;;2.77;82.84;102842.63;4953733;28;20042;-77
2022/03/26 05:24:53;;;;;;;74.18;31.65;;;;;;;2.76;82.60;102846.06;4966235;28;20034;-78
2022/03/26 05:27:19;;;;;;;73.72;32.28;;;;;;;2.75;82.64;102851.25;4952981;28;20041;-78
2022/03/26 05:29:46;;;;;;;83.55;32.38;;;;;;;2.75;83.04;102853.81;4969143;28;20026;-77
2022/03/26 05:32:15;;;;;;;78.95;32.15;;;;;;;2.73;83.18;102861.53;4983717;28;20038;-80
2022/03/26 05:34:41;;;;;;;73.72;32.05;;;;;;;2.73;83.00;102859.84;4966067;28;20030;-77
2022/03/26 05:37:07;;;;;;;71.60;31.60;;;;;;;2.71;83.09;102861.63;4970068;28;20034;-77
2022/03/26 05:39:33;;;;;;;74.63;30.83;;;;;;;2.70;83.25;102862.50;4987431;28;20569;-77
2022/03/26 05:41:58;;;;;;;74.75;30.13;;;;;;;2.71;82.91;102864.19;4967371;28;20048;-78
2022/03/26 05:44:24;;;;;;;75.40;31.10;;;;;;;2.73;82.90;102866.66;4969710;28;20049;-81
2022/03/26 05:46:50;;;;;;;79.50;33.10;;;;;;;2.75;83.23;102862.34;4952781;28;20045;-76
2022/03/26 05:49:16;;;;;;;78.78;30.67;;;;;;;2.77;83.05;102873.38;4983946;28;20454;-76
2022/03/26 05:51:42;;;;;;;77.60;31.95;;;;;;;2.78;82.80;102872.47;4981877;28;20038;-76
2022/03/26 05:54:08;;;;;;;76.50;31.13;;;;;;;2.80;82.77;102880.13;4984293;28;20487;-77
2022/03/26 05:56:36;;;;;;;75.53;30.75;;;;;;;2.81;82.79;102885.19;4985396;28;20049;-79
2022/03/26 05:59:12;;;;;;;74.88;31.58;;;;;;;2.81;82.96;102892.06;4966607;28;20124;-77
2022/03/26 06:01:38;;;;;;;74.88;31.15;;;;;;;2.82;82.85;102891.13;4966297;28;20037;-78
2022/03/26 06:04:04;;;;;;;75.13;30.25;;;;;;;2.83;83.01;102888.53;4954811;28;20030;-77
2022/03/26 06:06:29;;;;;;;72.38;30.05;;;;;;;2.83;83.01;102901.34;4971433;28;20621;-80
2022/03/26 06:08:54;;;;;;;62.80;29.17;;;;;;;2.80;83.17;102898.88;4964276;28;20038;-76
2022/03/26 06:11:20;;;;;;;74.53;29.90;;;;;;;2.78;83.30;102900.66;4970731;28;20073;-81
2022/03/26 06:13:46;;;;;;;69.28;29.17;;;;;;;2.80;83.35;102898.88;4971472;28;20388;-77
2022/03/26 06:16:13;;;;;;;77.07;30.30;;;;;;;2.82;83.69;102902.22;4986146;28;20286;-80
2022/03/26 06:18:38;;;;;;;69.88;29.52;;;;;;;2.87;83.93;102902.91;4988313;28;20038;-78
2022/03/26 06:21:05;;;;;;;69.25;30.15;;;;;;;2.91;84.08;102907.03;4987116;28;20084;-78
2022/03/26 06:23:32;;;;;;;71.38;30.02;;;;;;;2.99;84.01;102908.47;4987275;28;20030;-78
2022/03/26 06:25:58;;;;;;;82.05;32.20;;;;;;;3.04;84.39;102911.72;4970857;28;20027;-81
2022/03/26 06:28:23;;;;;;;80.32;33.22;;;;;;;3.11;84.46;102913.19;4971822;28;20093;-79
2022/03/26 06:30:49;;;;;;;80.38;31.27;;;;;;;3.21;84.43;102909.38;4966831;28;20065;-76
2022/03/26 06:33:16;;;;;;;81.03;31.05;;;;;;;3.31;84.83;102909.88;4984285;28;20038;-82
2022/03/26 06:35:46;;;;;;;71.82;31.02;;;;;;;3.42;85.16;102912.03;4973104;28;20462;-77
2022/03/26 06:38:12;;;;;;;70.53;30.60;;;;;;;3.54;85.27;102911.56;4983686;28;20038;-78
2022/03/26 06:40:39;;;;;;;77.40;31.42;;;;;;;3.70;85.71;102907.50;4972338;28;20031;-78
2022/03/26 06:43:06;;;;;;;90.53;32.92;;;;;;;3.88;85.45;102899.97;4985670;28;20030;-79
2022/03/26 06:45:32;;;;;;;78.47;31.10;;;;;;;4.08;85.36;102901.75;4954196;28;20042;-76
2022/03/26 06:47:57;;;;;;;81.28;30.83;;;;;;;4.35;85.54;102909.22;4967970;28;20474;-77
2022/03/26 06:50:23;;;;;;;74.07;30.58;;;;;;;4.73;84.89;102912.75;4959084;28;20124;-78
2022/03/26 06:52:48;;;;;;;76.95;33.30;;;;;;;5.26;83.04;102916.41;4969114;28;20438;-77
2022/03/26 06:55:14;;;;;;;81.70;31.67;;;;;;;5.89;80.92;102908.31;4959913;28;20119;-78
2022/03/26 06:57:41;;;;;;;70.47;29.55;;;;;;;6.54;78.02;102910.34;4986404;28;20030;-78
2022/03/26 07:00:17;;;;;;;66.00;29.63;;;;;;;7.16;75.01;102903.63;4970075;28;20514;-78
2022/03/26 07:02:43;;;;;;;84.93;31.88;;;;;;;7.77;72.76;102906.34;4967308;28;20130;-76
2022/03/26 07:05:09;;;;;;;65.68;28.23;;;;;;;8.28;70.69;102911.19;4955577;28;20030;-77
2022/03/26 07:07:35;;;;;;;63.38;28.48;;;;;;;8.74;68.93;102914.50;4990439;28;20108;-79
2022/03/26 07:10:01;;;;;;;65.68;28.65;;;;;;;9.05;66.02;102910.03;4972528;28;20727;-79
2022/03/26 07:12:29;;;;;;;75.72;29.45;;;;;;;9.31;65.20;102923.97;4970558;28;20069;-78
2022/03/26 07:14:55;;;;;;;63.88;27.40;;;;;;;9.70;64.22;102922.38;4968840;28;20161;-80
2022/03/26 07:17:21;;;;;;;69.03;26.00;;;;;;;9.92;63.20;102933.94;4972094;28;20088;-78
2022/03/26 07:19:47;;;;;;;62.85;27.27;;;;;;;10.25;62.25;102933.47;4972219;28;20415;-78
2022/03/26 07:22:13;;;;;;;59.97;26.55;;;;;;;10.50;61.27;102937.06;4986223;28;20133;-80
2022/03/26 07:24:39;;;;;;;66.07;27.58;;;;;;;10.62;60.44;102938.81;4977221;28;20031;-79
2022/03/26 07:27:05;;;;;;;69.50;26.95;;;;;;;10.47;60.10;102932.91;4968569;28;20030;-79
2022/03/26 07:29:32;;;;;;;55.80;26.85;;;;;;;10.95;59.45;102931.44;4970870;28;20549;-78
2022/03/26 07:31:58;;;;;;;69.13;28.10;;;;;;;11.25;58.77;102931.03;4969199;28;20144;-79
2022/03/26 07:34:26;;;;;;;59.60;25.48;;;;;;;11.43;58.02;102921.09;4966352;28;20089;-76
2022/03/26 07:36:51;;;;;;;62.40;27.33;;;;;;;11.73;56.15;102927.63;4983779;28;20109;-77
2022/03/26 07:39:17;;;;;;;60.50;26.92;;;;;;;11.89;56.91;102928.16;4967497;28;20161;-76
2022/03/26 07:41:42;;;;;;;58.45;26.80;;;;;;;12.10;55.35;102925.78;4970880;28;20034;-76
2022/03/26 07:44:08;;;;;;;65.03;27.52;;;;;;;12.38;54.86;102927.13;4972679;28;20058;-77
2022/03/26 07:46:34;;;;;;;111.53;46.65;;;;;;;12.61;54.35;102935.78;4985093;28;20034;-77
2022/03/26 07:48:59;;;;;;;74.95;33.95;;;;;;;12.81;53.30;102933.44;4968181;28;20046;-77
2022/03/26 07:51:25;;;;;;;61.22;27.95;;;;;;;12.97;53.30;102923.47;4968377;28;20116;-78
2022/03/26 07:53:50;;;;;;;66.93;29.67;;;;;;;13.03;52.67;102928.22;4985380;28;20030;-77
2022/03/26 07:56:16;;;;;;;60.88;29.33;;;;;;;13.35;51.26;102917.03;4986159;28;20092;-77
2022/03/26 07:58:42;;;;;;;58.30;27.38;;;;;;;13.48;51.41;102923.88;4951479;28;20033;-77
2022/03/26 08:01:07;;;;;;;61.45;29.50;;;;;;;13.56;51.69;102924.06;4969774;28;21634;-81
2022/03/26 08:03:33;;;;;;;62.85;28.45;;;;;;;13.50;51.95;102919.38;4988629;28;20112;-77
2022/03/26 08:05:59;;;;;;;59.67;28.20;;;;;;;13.82;50.46;102927.16;4982917;28;20048;-77
2022/03/26 08:08:25;;;;;;;65.30;28.65;;;;;;;14.04;51.28;102921.03;4969279;28;20058;-77
2022/03/26 08:10:50;;;;;;;63.75;28.38;;;;;;;14.31;50.27;102917.06;4964983;28;20044;-77
2022/03/26 08:13:17;;;;;;;63.10;28.70;;;;;;;14.37;50.06;102927.81;4986075;28;20042;-78
2022/03/26 08:15:43;;;;;;;68.47;29.83;;;;;;;14.52;49.71;102927.47;4982982;28;20065;-77
2022/03/26 08:18:08;;;;;;;63.63;29.55;;;;;;;14.66;48.74;102931.56;4970753;28;20391;-78
2022/03/26 08:20:34;;;;;;;69.03;30.77;;;;;;;14.71;47.91;102931.97;4969240;28;20033;-78
2022/03/26 08:22:59;;;;;;;64.80;29.98;;;;;;;14.73;48.57;102930.91;4973397;28;20045;-77
2022/03/26 08:28:11;;;;;;;63.95;32.17;;;;;;;15.03;47.08;102923.97;4985807;28;20114;-78
2022/03/26 08:30:37;;;;;;;68.55;30.88;;;;;;;15.06;46.66;102925.50;4968639;28;20079;-80
2022/03/26 08:33:04;;;;;;;57.83;30.58;;;;;;;14.83;47.02;102924.88;4958474;28;20038;-78
2022/03/26 08:35:39;;;;;;;71.07;32.08;;;;;;;15.13;47.84;102924.00;4972775;28;20491;-78
2022/03/26 08:38:05;;;;;;;71.78;30.38;;;;;;;15.21;47.18;102924.13;4967078;28;20042;-78
2022/03/26 08:40:30;;;;;;;65.03;31.83;;;;;;;15.54;46.90;102919.50;4970996;28;20034;-77
2022/03/26 08:42:58;;;;;;;67.82;31.92;;;;;;;15.91;45.80;102929.28;4971481;28;20095;-78
2022/03/26 08:45:25;;;;;;;69.82;30.55;;;;;;;15.89;44.85;102925.97;4970773;28;20034;-78
2022/03/26 08:47:51;;;;;;;68.95;31.30;;;;;;;16.17;46.14;102919.03;4970321;28;20069;-79
2022/03/26 08:50:16;;;;;;;70.10;31.13;;;;;;;16.14;45.71;102924.56;4967699;28;20053;-77
2022/03/26 08:52:42;;;;;;;71.70;31.73;;;;;;;16.26;43.90;102918.19;4970593;28;20438;-77
2022/03/26 08:55:08;;;;;;;69.60;31.42;;;;;;;16.34;43.93;102925.34;4968558;28;20037;-78
2022/03/26 08:57:34;;;;;;;67.32;31.02;;;;;;;16.24;43.59;102919.31;4985810;28;20407;-78
2022/03/26 08:59:59;;;;;;;69.40;30.33;;;;;;;16.38;43.82;102923.25;4987349;28;20033;-79
2022/03/26 09:02:25;;;;;;;79.07;32.35;;;;;;;16.41;43.14;102925.59;4982434;28;20607;-78
2022/03/26 09:04:50;;;;;;;63.92;30.70;;;;;;;15.88;43.15;102935.63;4970885;28;20026;-77
2022/03/26 09:07:16;;;;;;;71.85;32.30;;;;;;;16.23;42.45;102928.13;4987666;28;20511;-77
2022/03/26 09:09:41;;;;;;;66.95;31.65;;;;;;;16.37;42.76;102925.06;4972388;28;20045;-78
2022/03/26 09:12:07;;;;;;;65.95;31.75;;;;;;;16.33;43.30;102928.91;4978239;28;20046;-78
2022/03/26 09:14:33;;;;;;;64.47;29.75;;;;;;;16.20;42.53;102920.53;4982410;28;20054;-77
2022/03/26 09:16:58;;;;;;;66.05;29.52;;;;;;;16.20;42.65;102929.25;4986410;28;20077;-78
2022/03/26 09:19:24;;;;;;;64.95;30.08;;;;;;;16.22;43.92;102931.69;4968646;28;20038;-78
2022/03/26 09:21:49;;;;;;;63.85;30.38;;;;;;;16.27;45.58;102929.47;4971214;28;20030;-78
2022/03/26 09:24:16;;;;;;;71.53;32.67;;;;;;;16.49;44.97;102931.75;4954244;28;20037;-80
2022/03/26 09:26:42;;;;;;;78.88;33.45;;;;;;;16.38;45.19;102933.72;4970751;28;20034;-78
2022/03/26 09:29:08;;;;;;;63.30;29.20;;;;;;;16.04;44.51;102937.66;4984968;28;20168;-78
2022/03/26 09:31:33;;;;;;;63.85;30.08;;;;;;;16.24;45.40;102935.03;4981884;28;20051;-78
2022/03/26 09:33:59;;;;;;;69.50;30.95;;;;;;;16.30;45.86;102932.66;4981906;28;20038;-79
2022/03/26 09:36:24;;;;;;;64.10;30.50;;;;;;;16.16;46.60;102930.47;4967845;28;20034;-77
2022/03/26 09:38:49;;;;;;;67.57;30.55;;;;;;;16.29;45.74;102932.78;4984578;28;20026;-78
2022/03/26 09:41:16;;;;;;;63.25;30.50;;;;;;;16.31;46.78;102928.22;4969255;28;20049;-78
2022/03/26 09:43:42;;;;;;;67.13;30.95;;;;;;;16.12;47.19;102929.94;4967989;28;20038;-78
2022/03/26 09:46:08;;;;;;;64.05;29.50;;;;;;;16.07;46.01;102929.53;4969335;28;20487;-78
2022/03/26 09:48:33;;;;;;;70.45;30.63;;;;;;;16.09;46.59;102932.84;4995462;28;20065;-78
2022/03/26 09:51:01;;;;;;;64.88;30.17;;;;;;;16.23;46.75;102931.56;4973352;28;20037;-79
2022/03/26 09:53:27;;;;;;;68.30;29.80;;;;;;;16.31;47.16;102920.38;4967650;28;21125;-78
2022/03/26 09:55:53;;;;;;;59.47;30.00;;;;;;;16.38;47.27;102925.88;4972310;28;20035;-79
2022/03/26 09:58:19;;;;;;;60.25;28.05;;;;;;;16.38;46.24;102918.03;4973178;28;20043;-79
2022/03/26 10:00:44;;;;;;;59.58;29.55;;;;;;;16.38;45.31;102923.25;4971157;28;20045;-78
2022/03/26 10:03:10;;;;;;;59.10;28.15;;;;;;;16.28;46.49;102931.16;4978033;28;20041;-79
2022/03/26 10:05:36;;;;;;;62.75;28.70;;;;;;;16.41;47.40;102929.03;4987480;28;20030;-78
2022/03/26 10:08:22;;;;;;;62.10;27.83;;;;;;;16.32;48.36;102928.09;4989934;28;20076;-78
2022/03/26 10:10:49;;;;;;;62.40;26.83;;;;;;;16.46;47.10;102932.06;4976371;28;20038;-79
2022/03/26 10:13:34;;;;;;;57.17;28.85;;;;;;;16.61;45.73;102923.72;4988972;28;20045;-80
2022/03/26 10:16:07;;;;;;;60.08;27.83;;;;;;;16.81;47.05;102927.09;4969015;28;20499;-78
2022/03/26 10:18:41;;;;;;;70.35;29.33;;;;;;;16.91;46.82;102926.09;4987757;28;20038;-79
2022/03/26 10:21:12;;;;;;;59.83;27.23;;;;;;;16.97;46.18;102927.31;4971476;28;20097;-78
2022/03/26 10:23:42;;;;;;;67.95;28.90;;;;;;;16.88;45.46;102922.94;4985238;28;20034;-78
2022/03/26 10:26:13;;;;;;;68.28;30.00;;;;;;;16.99;45.54;102914.03;4985017;28;20037;-80
2022/03/26 10:28:43;;;;;;;65.07;29.42;;;;;;;17.00;44.56;102918.31;4983016;28;20038;-79
2022/03/26 10:34:01;;;;;;;62.85;28.75;;;;;;;16.91;43.23;102920.84;4986453;28;20447;-78
2022/03/26 10:36:27;;;;;;;64.47;30.45;;;;;;;16.83;41.68;102912.88;4957220;28;20070;-79
2022/03/26 10:38:52;;;;;;;57.47;27.92;;;;;;;16.78;43.09;102903.78;4970460;28;20034;-79
2022/03/26 10:41:21;;;;;;;65.55;28.85;;;;;;;16.70;42.54;102907.13;4970939;28;20049;-79
2022/03/26 10:43:46;;;;;;;67.40;27.88;;;;;;;16.91;41.95;102907.75;4967853;28;20022;-78
2022/03/26 10:46:12;;;;;;;62.55;29.95;;;;;;;16.99;42.99;102908.78;4987139;28;20554;-79
2022/03/26 10:48:38;;;;;;;63.28;31.70;;;;;;;16.88;42.63;102902.00;4968092;28;20039;-79
2022/03/26 10:51:15;;;;;;;64.57;29.52;;;;;;;17.01;42.98;102906.84;4986337;28;20112;-79
2022/03/26 10:53:47;;;;;;;60.45;27.48;;;;;;;17.06;43.26;102904.63;4971363;28;20034;-79
2022/03/26 10:56:15;;;;;;;64.85;28.75;;;;;;;17.04;41.84;102898.69;4969416;28;20082;-79
2022/03/26 10:58:43;;;;;;;61.63;28.15;;;;;;;17.02;41.66;102896.22;4984556;28;20046;-78
2022/03/26 11:01:09;;;;;;;66.45;28.42;;;;;;;17.06;42.98;102888.91;4968927;28;20097;-79
2022/03/26 11:03:36;;;;;;;62.22;28.15;;;;;;;17.24;43.05;102889.72;4988230;28;20038;-79
2022/03/26 11:06:06;;;;;;;56.05;27.25;;;;;;;17.26;42.03;102893.03;4987124;28;20038;-80
2022/03/26 11:08:32;;;;;;;59.95;25.65;;;;;;;17.45;42.73;102899.91;4985908;28;20084;-79
2022/03/26 11:11:01;;;;;;;56.22;27.73;;;;;;;17.42;40.63;102883.66;4971582;28;20129;-79
2022/03/26 11:13:28;;;;;;;53.05;25.85;;;;;;;17.33;41.64;102880.16;4976652;28;20030;-79
2022/03/26 11:16:09;;;;;;;48.88;24.60;;;;;;;17.37;42.31;102891.16;4973990;28;20086;-79